createdAt,value
2023-02-12T00:02:03.751Z,3.81
2023-02-12T00:05:06.554Z,3.77
2023-02-12T00:08:11.206Z,3.78
2023-02-12T00:11:20.318Z,3.77
2023-02-12T00:14:22.530Z,3.76
2023-02-12T00:17:25.138Z,3.80
2023-02-12T00:20:27.387Z,3.75
2023-02-12T00:23:30.192Z,3.68
2023-02-12T00:26:32.348Z,3.69
2023-02-12T00:29:34.784Z,3.70
2023-02-12T00:32:37.343Z,3.66
2023-02-12T00:35:39.813Z,3.75
2023-02-12T00:38:42.559Z,3.80
2023-02-12T00:41:45.667Z,3.74
2023-02-12T00:44:47.901Z,3.71
2023-02-12T00:47:50.395Z,3.72
2023-02-12T00:50:52.657Z,3.70
2023-02-12T00:53:55.252Z,3.59
2023-02-12T00:56:57.918Z,3.54
2023-02-12T01:00:04.408Z,3.67
2023-02-12T01:03:06.720Z,3.77
2023-02-12T01:06:09.297Z,3.79
2023-02-12T01:09:12.062Z,3.77
2023-02-12T01:12:14.785Z,3.71
2023-02-12T01:15:18.005Z,3.76
2023-02-12T01:18:20.503Z,3.86
2023-02-12T01:21:29.027Z,3.92
2023-02-12T01:24:31.538Z,3.90
2023-02-12T01:27:34.047Z,3.83
2023-02-12T01:30:36.603Z,3.67
2023-02-12T01:33:39.488Z,3.57
2023-02-12T01:36:42.069Z,3.63
2023-02-12T01:39:44.445Z,3.76
2023-02-12T01:42:47.144Z,3.77
2023-02-12T01:45:54.096Z,3.71
2023-02-12T01:48:56.822Z,3.71
2023-02-12T01:52:15.456Z,3.77
2023-02-12T01:55:19.454Z,3.81
2023-02-12T01:58:24.100Z,3.71
2023-02-12T02:01:30.861Z,3.55
2023-02-12T02:04:41.691Z,3.50
2023-02-12T02:07:46.818Z,3.63
2023-02-12T02:10:49.506Z,3.51
2023-02-12T02:14:10.961Z,3.45
2023-02-12T02:17:19.278Z,3.46
2023-02-12T02:20:50.962Z,3.41
2023-02-12T02:24:15.209Z,3.50
2023-02-12T02:27:27.846Z,3.45
2023-02-12T02:30:55.649Z,3.48
2023-02-12T02:34:04.259Z,3.43
2023-02-12T02:37:12.921Z,3.33
2023-02-12T02:40:20.346Z,3.29
2023-02-12T02:43:29.216Z,3.19
2023-02-12T02:46:48.469Z,3.04
2023-02-12T02:49:59.457Z,3.10
2023-02-12T02:53:12.034Z,3.24
2023-02-12T02:56:20.185Z,3.24
2023-02-12T02:59:29.360Z,3.26
2023-02-12T03:02:36.139Z,3.28
2023-02-12T03:05:43.560Z,3.19
2023-02-12T03:09:00.841Z,3.29
2023-02-12T03:12:21.039Z,3.12
2023-02-12T03:15:46.560Z,3.18
2023-02-12T03:19:14.154Z,3.21
2023-02-12T03:22:23.237Z,3.21
2023-02-12T03:25:47.033Z,3.24
2023-02-12T03:28:49.452Z,3.30
2023-02-12T03:32:05.619Z,3.35
2023-02-12T03:35:08.235Z,3.38
2023-02-12T03:38:38.984Z,3.40
2023-02-12T03:42:02.313Z,3.40
2023-02-12T03:45:24.908Z,3.46
2023-02-12T03:48:33.707Z,3.54
2023-02-12T03:51:44.925Z,3.52
2023-02-12T03:54:47.885Z,3.52
2023-02-12T03:57:58.880Z,3.55
2023-02-12T04:01:03.275Z,3.46
2023-02-12T04:04:07.994Z,3.41
2023-02-12T04:07:10.845Z,3.38
2023-02-12T04:10:13.776Z,3.40
2023-02-12T04:13:26.312Z,3.32
2023-02-12T04:16:36.977Z,3.37
2023-02-12T04:19:51.059Z,3.40
2023-02-12T04:23:03.042Z,3.35
2023-02-12T04:26:18.353Z,3.38
2023-02-12T04:30:02.924Z,3.44
2023-02-12T04:33:08.180Z,3.36
2023-02-12T04:36:25.039Z,3.42
2023-02-12T04:39:30.095Z,3.42
2023-02-12T04:42:41.825Z,3.43
2023-02-12T04:45:44.158Z,3.48
2023-02-12T04:48:53.918Z,3.49
2023-02-12T04:51:56.223Z,3.42
2023-02-12T04:54:58.746Z,3.42
2023-02-12T04:58:01.298Z,3.25
2023-02-12T05:01:03.881Z,3.12
2023-02-12T05:04:07.380Z,3.20
2023-02-12T05:07:11.793Z,3.23
2023-02-12T05:10:14.110Z,3.29
2023-02-12T05:13:16.644Z,3.36
2023-02-12T05:16:20.304Z,3.26
2023-02-12T05:19:22.887Z,3.32
2023-02-12T05:22:25.151Z,3.32
2023-02-12T05:25:27.678Z,3.30
2023-02-12T05:28:30.943Z,3.19
2023-02-12T05:31:33.585Z,3.14
2023-02-12T05:34:36.602Z,2.81
2023-02-12T05:37:39.236Z,2.48
2023-02-12T05:40:43.141Z,2.23
2023-02-12T05:43:49.481Z,2.17
2023-02-12T05:46:51.922Z,2.41
2023-02-12T05:49:54.652Z,2.33
2023-02-12T05:52:56.876Z,2.33
2023-02-12T05:56:09.494Z,2.52
2023-02-12T05:59:18.016Z,2.57
2023-02-12T06:02:20.562Z,2.77
2023-02-12T06:05:23.044Z,2.73
2023-02-12T06:08:25.199Z,2.81
2023-02-12T06:11:28.077Z,3.08
2023-02-12T06:14:32.032Z,3.15
2023-02-12T06:17:35.408Z,3.28
2023-02-12T06:20:39.995Z,3.37
2023-02-12T06:23:42.815Z,3.43
2023-02-12T06:26:46.092Z,3.36
2023-02-12T06:29:48.510Z,3.32
2023-02-12T06:32:51.041Z,3.39
2023-02-12T06:35:53.981Z,3.41
2023-02-12T06:38:56.619Z,3.48
2023-02-12T06:41:59.107Z,3.51
2023-02-12T06:45:01.392Z,3.76
2023-02-12T06:48:04.080Z,4.63
2023-02-12T06:51:12.472Z,5.16
2023-02-12T06:54:16.704Z,5.01
2023-02-12T06:57:18.925Z,4.70
2023-02-12T07:00:21.898Z,4.50
2023-02-12T07:03:24.128Z,4.35
2023-02-12T07:06:28.017Z,4.24
2023-02-12T07:09:30.304Z,4.14
2023-02-12T07:12:33.767Z,4.10
2023-02-12T07:15:39.516Z,4.13
2023-02-12T07:18:43.769Z,4.21
2023-02-12T07:21:46.014Z,4.19
2023-02-12T07:24:48.685Z,4.24
2023-02-12T07:27:50.977Z,4.54
2023-02-12T07:30:54.379Z,4.68
2023-02-12T07:33:58.553Z,4.68
2023-02-12T07:37:01.012Z,4.65
2023-02-12T07:40:03.608Z,4.71
2023-02-12T07:43:06.309Z,4.81
2023-02-12T07:46:17.237Z,4.96
2023-02-12T07:49:22.363Z,5.06
2023-02-12T07:52:24.562Z,5.02
2023-02-12T07:55:27.028Z,5.10
2023-02-12T07:58:29.230Z,5.14
2023-02-12T08:01:34.204Z,5.09
2023-02-12T08:04:36.729Z,5.21
2023-02-12T08:07:39.043Z,5.28
2023-02-12T08:10:41.634Z,5.21
2023-02-12T08:13:44.542Z,5.38
2023-02-12T08:16:49.337Z,5.57
2023-02-12T08:19:51.582Z,5.75
2023-02-12T08:22:54.095Z,5.79
2023-02-12T08:26:15.298Z,5.88
2023-02-12T08:29:21.392Z,5.86
2023-02-12T08:32:23.575Z,5.62
2023-02-12T08:35:26.132Z,5.54
2023-02-12T08:38:28.544Z,5.49
2023-02-12T08:41:31.504Z,5.81
2023-02-12T08:44:33.832Z,5.80
2023-02-12T08:47:36.390Z,5.73
2023-02-12T08:50:39.028Z,5.71
2023-02-12T08:53:43.446Z,5.85
2023-02-12T08:56:45.755Z,5.85
2023-02-12T08:59:49.131Z,5.97
2023-02-12T09:02:51.463Z,6.10
2023-02-12T09:05:54.841Z,6.14
2023-02-12T09:08:57.209Z,6.11
2023-02-12T09:11:59.758Z,6.36
2023-02-12T09:15:01.994Z,6.53
2023-02-12T09:18:04.992Z,6.59
2023-02-12T09:21:10.047Z,6.53
2023-02-12T09:24:12.725Z,6.63
2023-02-12T09:27:14.954Z,6.78
2023-02-12T09:30:17.872Z,6.92
2023-02-12T09:33:20.229Z,7.16
2023-02-12T09:36:22.758Z,7.20
2023-02-12T09:39:25.931Z,7.44
2023-02-12T09:42:41.845Z,7.70
2023-02-12T09:46:04.630Z,7.70
2023-02-12T09:49:39.497Z,8.13
2023-02-12T09:52:41.924Z,9.10
2023-02-12T09:55:46.078Z,9.79
2023-02-12T09:58:58.988Z,9.82
2023-02-12T10:02:01.869Z,11.02
2023-02-12T10:05:06.614Z,11.93
2023-02-12T10:08:39.637Z,12.56
2023-02-12T10:12:12.992Z,14.22
2023-02-12T10:15:33.039Z,14.68
2023-02-12T10:19:02.800Z,14.81
2023-02-12T10:22:13.795Z,15.87
2023-02-12T10:25:41.107Z,16.40
2023-02-12T10:28:44.289Z,16.48
2023-02-12T10:32:16.114Z,16.37
2023-02-12T10:35:20.338Z,16.81
2023-02-12T10:38:29.025Z,16.29
2023-02-12T10:41:36.811Z,16.85
2023-02-12T10:44:39.404Z,17.09
2023-02-12T10:47:41.711Z,16.90
2023-02-12T10:51:08.876Z,16.60
2023-02-12T10:54:37.949Z,17.62
2023-02-12T10:57:40.594Z,17.97
2023-02-12T11:00:42.964Z,17.26
2023-02-12T11:03:45.638Z,16.85
2023-02-12T11:07:08.903Z,16.65
2023-02-12T11:10:22.469Z,16.94
2023-02-12T11:13:28.519Z,16.79
2023-02-12T11:16:34.725Z,17.96
2023-02-12T11:19:37.034Z,19.31
2023-02-12T11:22:53.788Z,18.03
2023-02-12T11:26:02.929Z,17.60
2023-02-12T11:29:21.295Z,17.11
2023-02-12T11:32:23.436Z,17.19
2023-02-12T11:35:33.802Z,17.40
2023-02-12T11:38:39.026Z,16.07
2023-02-12T11:41:42.905Z,14.86
2023-02-12T11:44:54.217Z,14.47
2023-02-12T11:47:57.319Z,14.05
2023-02-12T11:51:03.825Z,13.69
2023-02-12T11:54:06.582Z,14.42
2023-02-12T11:57:36.723Z,13.92
2023-02-12T12:01:02.793Z,13.98
2023-02-12T12:04:08.519Z,13.11
2023-02-12T12:07:22.620Z,12.50
2023-02-12T12:10:36.548Z,12.27
2023-02-12T12:13:48.555Z,12.01
2023-02-12T12:17:13.391Z,11.70
2023-02-12T12:20:25.061Z,11.33
2023-02-12T12:23:35.742Z,11.11
2023-02-12T12:26:40.952Z,10.93
2023-02-12T12:30:00.925Z,10.73
2023-02-12T12:33:09.072Z,10.57
2023-02-12T12:36:14.303Z,10.39
2023-02-12T12:39:25.473Z,10.45
2023-02-12T12:42:30.921Z,10.25
2023-02-12T12:46:08.050Z,10.22
2023-02-12T12:49:24.736Z,10.12
2023-02-12T12:52:38.709Z,10.10
2023-02-12T12:56:14.987Z,10.06
2023-02-12T12:59:30.112Z,10.21
2023-02-12T13:02:51.335Z,10.46
2023-02-12T13:06:29.022Z,10.48
2023-02-12T13:09:49.637Z,10.47
2023-02-12T13:12:57.749Z,10.32
2023-02-12T13:16:16.403Z,9.95
2023-02-12T13:19:31.503Z,9.47
2023-02-12T13:22:48.483Z,9.38
2023-02-12T13:26:13.992Z,9.31
2023-02-12T13:29:16.380Z,9.69
2023-02-12T13:32:30.797Z,9.63
2023-02-12T13:35:36.773Z,9.39
2023-02-12T13:38:44.524Z,9.18
2023-02-12T13:42:00.727Z,9.00
2023-02-12T13:45:19.645Z,8.91
2023-02-12T13:48:34.490Z,8.84
2023-02-12T13:51:45.002Z,8.88
2023-02-12T13:55:19.623Z,8.82
2023-02-12T13:58:40.185Z,8.86
2023-02-12T14:01:47.504Z,8.68
2023-02-12T14:04:53.356Z,8.50
2023-02-12T14:07:58.977Z,8.52
2023-02-12T14:11:08.575Z,8.42
2023-02-12T14:14:10.952Z,8.33
2023-02-12T14:17:28.867Z,8.31
2023-02-12T14:20:40.352Z,8.54
2023-02-12T14:23:46.443Z,8.73
2023-02-12T14:26:48.910Z,8.49
2023-02-12T14:30:09.997Z,8.36
2023-02-12T14:33:26.994Z,8.09
2023-02-12T14:36:32.462Z,8.08
2023-02-12T14:39:34.769Z,7.97
2023-02-12T14:42:37.291Z,7.89
2023-02-12T14:45:39.558Z,7.83
2023-02-12T14:49:05.905Z,7.85
2023-02-12T14:52:11.773Z,7.64
2023-02-12T14:55:35.284Z,7.41
2023-02-12T14:58:37.917Z,7.65
2023-02-12T15:01:42.519Z,7.64
2023-02-12T15:04:45.748Z,7.40
2023-02-12T15:08:12.013Z,7.39
2023-02-12T15:11:21.597Z,7.39
2023-02-12T15:14:28.314Z,7.35
2023-02-12T15:17:39.391Z,7.35
2023-02-12T15:20:50.644Z,7.41
2023-02-12T15:24:11.755Z,7.46
2023-02-12T15:27:15.865Z,7.31
2023-02-12T15:30:26.381Z,7.19
2023-02-12T15:33:33.371Z,7.06
2023-02-12T15:36:36.063Z,6.94
2023-02-12T15:39:44.380Z,6.73
2023-02-12T15:42:54.326Z,6.49
2023-02-12T15:45:58.047Z,6.23
2023-02-12T15:49:00.353Z,6.02
2023-02-12T15:52:22.036Z,5.92
2023-02-12T15:55:27.986Z,5.66
2023-02-12T15:58:36.867Z,5.59
2023-02-12T16:01:40.744Z,5.41
2023-02-12T16:04:44.853Z,5.26
2023-02-12T16:07:47.080Z,5.24
2023-02-12T16:10:53.138Z,5.14
2023-02-12T16:14:01.602Z,5.03
2023-02-12T16:17:04.325Z,4.87
2023-02-12T16:20:24.752Z,4.68
2023-02-12T16:23:27.419Z,4.45
2023-02-12T16:26:29.815Z,4.27
2023-02-12T16:29:35.926Z,4.16
2023-02-12T16:32:40.568Z,4.14
2023-02-12T16:35:43.107Z,4.07
2023-02-12T16:38:49.647Z,3.95
2023-02-12T16:41:56.083Z,3.81
2023-02-12T16:44:58.382Z,3.68
2023-02-12T16:48:08.767Z,3.56
2023-02-12T16:51:24.917Z,3.49
2023-02-12T16:54:32.183Z,3.45
2023-02-12T16:57:34.396Z,3.42
2023-02-12T17:00:36.944Z,3.36
2023-02-12T17:03:39.913Z,3.34
2023-02-12T17:06:43.530Z,3.45
2023-02-12T17:09:45.838Z,3.46
2023-02-12T17:12:51.487Z,3.56
2023-02-12T17:16:01.502Z,3.39
2023-02-12T17:19:04.158Z,3.29
2023-02-12T17:22:08.926Z,3.32
2023-02-12T17:25:13.528Z,3.29
2023-02-12T17:28:15.942Z,3.28
2023-02-12T17:31:20.684Z,3.26
2023-02-12T17:34:23.712Z,3.14
2023-02-12T17:37:26.267Z,3.09
2023-02-12T17:40:28.506Z,3.07
2023-02-12T17:43:31.200Z,3.13
2023-02-12T17:46:33.902Z,3.16
2023-02-12T17:49:38.635Z,3.06
2023-02-12T17:52:41.008Z,2.88
2023-02-12T17:55:43.550Z,2.74
2023-02-12T17:58:46.587Z,2.60
2023-02-12T18:01:49.045Z,2.56
2023-02-12T18:04:51.914Z,2.44
2023-02-12T18:07:54.423Z,2.36
2023-02-12T18:10:57.250Z,2.34
2023-02-12T18:14:00.269Z,2.22
2023-02-12T18:17:03.067Z,2.18
2023-02-12T18:20:06.419Z,2.11
2023-02-12T18:23:10.152Z,2.09
2023-02-12T18:26:15.855Z,2.07
2023-02-12T18:29:18.365Z,2.02
2023-02-12T18:32:20.519Z,1.88
2023-02-12T18:35:23.814Z,1.86
2023-02-12T18:38:26.108Z,1.94
2023-02-12T18:41:31.446Z,1.87
2023-02-12T18:44:33.685Z,2.13
2023-02-12T18:47:36.411Z,2.02
2023-02-12T18:50:38.789Z,1.84
2023-02-12T18:53:41.882Z,1.68
2023-02-12T18:56:46.785Z,1.58
2023-02-12T18:59:50.752Z,1.48
2023-02-12T19:02:52.935Z,1.44
2023-02-12T19:06:03.794Z,1.61
2023-02-12T19:09:06.691Z,1.68
2023-02-12T19:12:09.192Z,1.66
2023-02-12T19:15:11.781Z,1.62
2023-02-12T19:18:16.285Z,1.59
2023-02-12T19:21:18.938Z,1.59
2023-02-12T19:24:21.768Z,1.37
2023-02-12T19:27:24.029Z,1.23
2023-02-12T19:30:26.551Z,1.15
2023-02-12T19:33:28.740Z,1.10
2023-02-12T19:36:33.090Z,1.04
2023-02-12T19:39:35.314Z,0.94
2023-02-12T19:42:37.783Z,0.92
2023-02-12T19:45:39.984Z,0.84
2023-02-12T19:48:43.775Z,0.74
2023-02-12T19:51:46.907Z,0.64
2023-02-12T19:54:49.444Z,0.66
2023-02-12T19:57:51.718Z,0.63
2023-02-12T20:00:54.548Z,0.63
2023-02-12T20:03:58.220Z,0.59
2023-02-12T20:07:00.476Z,0.56
2023-02-12T20:10:03.208Z,0.55
2023-02-12T20:13:05.625Z,0.54
2023-02-12T20:16:11.583Z,0.51
2023-02-12T20:19:27.430Z,0.76
2023-02-12T20:22:29.981Z,0.66
2023-02-12T20:25:32.222Z,0.47
2023-02-12T20:28:36.981Z,0.40
2023-02-12T20:31:39.393Z,0.34
2023-02-12T20:34:50.523Z,0.25
2023-02-12T20:37:53.226Z,0.24
2023-02-12T20:40:56.064Z,0.25
2023-02-12T20:44:00.843Z,0.26
2023-02-12T20:47:03.583Z,0.25
2023-02-12T20:50:06.572Z,0.41
2023-02-12T20:53:09.277Z,0.65
2023-02-12T20:56:15.228Z,1.02
2023-02-12T20:59:18.832Z,1.03
2023-02-12T21:02:21.109Z,1.00
2023-02-12T21:05:23.672Z,1.13
2023-02-12T21:08:25.972Z,1.13
2023-02-12T21:11:29.704Z,0.88
2023-02-12T21:14:31.898Z,0.68
2023-02-12T21:17:34.894Z,0.80
2023-02-12T21:20:37.074Z,0.63
2023-02-12T21:23:40.206Z,0.57
2023-02-12T21:26:42.863Z,1.15
2023-02-12T21:29:45.514Z,1.11
2023-02-12T21:32:47.801Z,1.38
2023-02-12T21:35:50.457Z,1.33
2023-02-12T21:38:53.540Z,1.12
2023-02-12T21:41:59.974Z,0.77
2023-02-12T21:45:02.257Z,0.50
2023-02-12T21:48:05.031Z,0.35
2023-02-12T21:51:15.663Z,0.21
2023-02-12T21:54:18.933Z,0.29
2023-02-12T21:57:21.862Z,0.42
2023-02-12T22:00:24.595Z,0.31
2023-02-12T22:03:27.536Z,0.16
2023-02-12T22:06:30.261Z,0.11
2023-02-12T22:09:32.945Z,0.07
2023-02-12T22:12:36.019Z,-0.02
2023-02-12T22:15:38.579Z,-0.09
2023-02-12T22:18:41.735Z,-0.09
2023-02-12T22:21:44.551Z,-0.19
2023-02-12T22:24:46.873Z,-0.21
2023-02-12T22:27:49.407Z,-0.23
2023-02-12T22:30:51.661Z,-0.26
2023-02-12T22:33:56.523Z,-0.27
2023-02-12T22:36:58.697Z,-0.29
2023-02-12T22:40:01.218Z,-0.24
2023-02-12T22:43:03.396Z,-0.35
2023-02-12T22:46:07.894Z,-0.38
2023-02-12T22:49:10.520Z,-0.42
2023-02-12T22:52:13.026Z,-0.41
2023-02-12T22:55:15.389Z,-0.39
2023-02-12T22:58:18.301Z,-0.52
2023-02-12T23:01:21.139Z,-0.67
2023-02-12T23:04:23.835Z,-0.76
2023-02-12T23:07:26.336Z,-0.79
2023-02-12T23:10:28.929Z,-0.77
2023-02-12T23:13:31.268Z,-0.68
2023-02-12T23:16:33.837Z,-0.76
2023-02-12T23:19:36.059Z,-0.85
2023-02-12T23:22:38.627Z,-0.66
2023-02-12T23:25:41.657Z,-0.73
2023-02-12T23:28:44.212Z,-0.79
2023-02-12T23:31:47.010Z,-0.85
2023-02-12T23:34:49.634Z,-0.82
2023-02-12T23:37:52.107Z,-0.98
2023-02-12T23:40:54.809Z,-1.04
2023-02-12T23:43:57.241Z,-1.12
2023-02-12T23:47:01.805Z,-1.06
2023-02-12T23:50:04.733Z,-0.79
2023-02-12T23:53:07.427Z,-0.59
2023-02-12T23:56:09.700Z,-0.72
2023-02-12T23:59:12.243Z,-0.95
